createdAt,value
2016-05-03T00:11:05.567Z,91.5
2016-05-03T00:11:15.551Z,91.5
2016-05-03T00:11:25.554Z,91.6
2016-05-03T00:11:35.554Z,91.5
2016-05-03T00:11:45.570Z,91.41
2016-05-03T00:11:55.570Z,91.5
2016-05-03T00:12:05.570Z,91.21
2016-05-03T00:12:15.585Z,90.93
2016-05-03T00:12:25.588Z,91.31
2016-05-03T00:12:35.588Z,91.31
2016-05-03T00:12:45.604Z,91.41
2016-05-03T00:12:55.604Z,91.31
2016-05-03T00:13:05.604Z,91.21
2016-05-03T00:13:15.619Z,91.21
2016-05-03T00:13:25.621Z,91.21
2016-05-03T00:13:35.621Z,91.02
2016-05-03T00:13:45.637Z,91.5
2016-05-03T00:13:55.637Z,91.41
2016-05-03T00:14:05.637Z,90.73
2016-05-03T00:14:15.637Z,90.83
2016-05-03T00:14:25.656Z,90.73
2016-05-03T00:14:35.656Z,90.55
2016-05-03T00:14:45.656Z,90.73
2016-05-03T00:14:55.671Z,90.64
2016-05-03T00:15:05.671Z,90.55
2016-05-03T00:15:15.687Z,90.73
2016-05-03T00:15:25.690Z,90.64
2016-05-03T00:15:35.690Z,90.83
2016-05-03T00:15:45.706Z,90.64
2016-05-03T00:15:55.706Z,90.73
2016-05-03T00:16:05.706Z,90.73
2016-05-03T00:16:15.706Z,90.73
2016-05-03T00:16:25.723Z,90.83
2016-05-03T00:16:35.723Z,90.73
2016-05-03T00:16:45.723Z,90.83
2016-05-03T00:16:55.723Z,90.73
2016-05-03T00:17:05.739Z,90.83
2016-05-03T00:17:15.739Z,90.73
2016-05-03T00:17:25.757Z,90.55
2016-05-03T00:17:35.757Z,90.64
2016-05-03T00:17:45.773Z,90.64
2016-05-03T00:17:55.773Z,90.73
2016-05-03T00:18:05.773Z,90.83
2016-05-03T00:18:15.773Z,90.73
2016-05-03T00:18:25.792Z,90.64
2016-05-03T00:18:35.792Z,91.02
2016-05-03T00:18:45.792Z,90.64
2016-05-03T00:18:55.792Z,90.26
2016-05-03T00:19:05.807Z,90.17
2016-05-03T00:19:15.807Z,90.36
2016-05-03T00:19:25.826Z,90.55
2016-05-03T00:19:35.826Z,90.36
2016-05-03T00:19:45.826Z,90.26
2016-05-03T00:19:56.388Z,90.45
2016-05-03T00:20:05.842Z,90.45
2016-05-03T00:20:15.842Z,90.36
2016-05-03T00:20:25.844Z,90.73
2016-05-03T00:20:35.859Z,90.45
2016-05-03T00:20:45.859Z,90.55
2016-05-03T00:20:55.859Z,90.36
2016-05-03T00:21:05.875Z,90.26
2016-05-03T00:21:15.875Z,90.26
2016-05-03T00:21:25.878Z,90.17
2016-05-03T00:21:35.878Z,89.97
2016-05-03T00:21:45.893Z,89.88
2016-05-03T00:21:55.893Z,90.17
2016-05-03T00:22:05.909Z,90.26
2016-05-03T00:22:15.909Z,90.17
2016-05-03T00:22:25.912Z,90.55
2016-05-03T00:22:35.928Z,90.17
2016-05-03T00:22:45.928Z,90.07
2016-05-03T00:22:55.928Z,90.36
2016-05-03T00:23:05.928Z,90.26
2016-05-03T00:23:15.943Z,90.26
2016-05-03T00:23:25.945Z,90.26
2016-05-03T01:50:27.795Z,89.83
2016-05-03T01:50:37.763Z,89.83
2016-05-03T01:50:47.782Z,90.11
2016-05-03T01:50:57.782Z,89.73
2016-05-03T01:51:07.782Z,89.73
2016-05-03T01:51:17.813Z,89.73
2016-05-03T01:51:27.798Z,89.73
2016-05-03T01:51:37.798Z,90.11
2016-05-03T01:51:47.815Z,90.02
2016-05-03T01:51:57.815Z,89.73
2016-05-03T01:52:08.237Z,89.73
2016-05-03T01:52:17.846Z,90.02
2016-05-03T01:52:27.831Z,90.02
2016-05-03T01:52:37.846Z,89.92
2016-05-03T01:52:47.850Z,89.73
2016-05-03T01:52:57.850Z,89.73
2016-05-03T01:53:07.866Z,90.21
2016-05-03T01:53:17.866Z,90.02
2016-05-03T01:53:27.866Z,89.92
2016-05-03T01:53:37.866Z,90.02
2016-05-03T01:53:47.884Z,90.11
2016-05-03T01:53:57.884Z,90.11
2016-05-03T01:54:07.884Z,89.92
2016-05-03T01:54:17.899Z,89.92
2016-05-03T01:54:27.899Z,89.92
2016-05-03T01:54:37.899Z,89.64
2016-05-03T01:54:47.917Z,89.54
2016-05-03T01:54:57.917Z,89.83
2016-05-03T01:55:07.917Z,89.83
2016-05-03T01:55:17.917Z,90.21
2016-05-03T01:55:27.933Z,90.31
2016-05-03T01:55:37.933Z,90.21
2016-05-03T01:55:47.937Z,89.83
2016-05-03T01:55:57.952Z,89.54
2016-05-03T01:56:07.952Z,89.73
2016-05-03T01:56:17.952Z,89.64
2016-05-03T01:56:27.968Z,89.83
2016-05-03T01:56:37.968Z,89.83
2016-05-03T01:56:47.985Z,89.83
2016-05-03T01:56:57.985Z,90.4
2016-05-03T01:57:08.001Z,90.59
2016-05-03T01:57:18.001Z,90.5
2016-05-03T01:57:28.001Z,90.59
2016-05-03T01:57:38.001Z,90.5
2016-05-03T01:57:48.003Z,90.59
2016-05-03T01:57:58.003Z,90.11
2016-05-03T01:58:08.019Z,90.31
2016-05-03T01:58:18.019Z,90.11
2016-05-03T01:58:28.034Z,90.11
2016-05-03T01:58:38.034Z,90.02
2016-05-03T01:58:50.209Z,90.59
2016-05-03T01:59:00.537Z,90.4
2016-05-03T01:59:10.569Z,90.59
2016-05-03T01:59:20.865Z,90.69
2016-05-03T01:59:32.334Z,90.69
2016-05-03T01:59:42.178Z,90.59
2016-05-03T01:59:52.087Z,90.69
2016-05-03T02:00:03.868Z,90.69
2016-05-03T02:00:14.884Z,90.5
2016-05-03T02:00:24.525Z,90.69
2016-05-03T02:00:34.697Z,90.11
2016-05-03T02:00:44.700Z,90.31
2016-05-03T02:00:54.700Z,90.21
2016-05-03T02:01:04.700Z,90.02
2016-05-03T02:01:14.731Z,90.02
2016-05-03T02:01:24.700Z,89.92
2016-05-03T02:01:34.715Z,90.4
2016-05-03T02:01:44.670Z,90.31
2016-05-03T02:01:54.670Z,90.11
2016-05-03T02:02:04.686Z,90.02
2016-05-03T02:02:14.686Z,90.21
2016-05-03T02:02:24.686Z,90.31
2016-05-03T02:02:34.686Z,90.59
2016-05-03T02:02:44.720Z,90.31
2016-05-03T02:02:54.705Z,90.21
2016-05-03T02:03:04.705Z,90.21
2016-05-03T02:03:14.111Z,90.11
2016-05-03T02:03:24.111Z,90.11
2016-05-03T02:03:34.126Z,90.02
2016-05-03T02:03:44.126Z,90.31
2016-05-03T02:03:54.129Z,90.02
2016-05-03T02:04:04.145Z,90.21
2016-05-03T02:04:14.145Z,90.11
2016-05-03T02:04:24.145Z,90.02
2016-05-03T02:04:34.161Z,90.59
2016-05-03T02:04:44.161Z,90.21
2016-05-03T02:04:54.164Z,90.31
2016-05-03T02:05:04.179Z,90.21
2016-05-03T02:05:14.179Z,90.31
2016-05-03T02:05:24.179Z,90.31
2016-05-03T02:05:34.195Z,90.11
2016-05-03T02:05:44.195Z,90.5
2016-05-03T02:05:54.198Z,90.4
2016-05-03T02:06:04.214Z,90.59
2016-05-03T02:06:14.214Z,90.59
2016-05-03T02:06:24.214Z,90.4
2016-05-03T02:06:34.214Z,90.88
2016-05-03T02:06:44.229Z,91.07
2016-05-03T02:06:54.230Z,90.97
2016-05-03T02:07:04.246Z,90.78
2016-05-03T02:07:14.246Z,91.07
2016-05-03T02:07:24.683Z,91.16
2016-05-03T02:07:34.261Z,90.88
2016-05-03T02:07:44.261Z,91.45
2016-05-03T02:07:54.265Z,91.36
2016-05-03T02:08:04.265Z,91.16
2016-05-03T02:08:14.281Z,91.16
2016-05-03T02:08:24.281Z,91.26
2016-05-03T02:08:34.281Z,91.07
2016-05-03T02:08:44.297Z,91.07
2016-05-03T02:08:54.299Z,91.16
2016-05-03T02:09:04.299Z,91.16
2016-05-03T02:09:14.314Z,90.97
2016-05-03T02:09:24.314Z,91.16
2016-05-03T02:09:34.314Z,91.36
2016-05-03T02:09:44.330Z,91.64
2016-05-03T02:09:54.333Z,91.16
2016-05-03T02:10:04.333Z,91.16
2016-05-03T02:10:14.349Z,91.26
2016-05-03T02:10:24.349Z,91.36
2016-05-03T02:10:34.349Z,91.36
2016-05-03T02:10:44.349Z,91.93
2016-05-03T02:10:54.367Z,91.64
2016-05-03T02:11:04.367Z,91.55
2016-05-03T02:11:14.383Z,91.55
2016-05-03T02:11:24.383Z,91.45
2016-05-03T02:11:34.383Z,91.45
2016-05-03T02:11:44.398Z,91.16
2016-05-03T02:11:54.400Z,90.97
2016-05-03T02:12:04.400Z,91.36
2016-05-03T02:12:14.400Z,91.07
2016-05-03T02:12:24.416Z,91.16
2016-05-03T02:12:34.416Z,91.26
2016-05-03T02:12:44.432Z,91.26
2016-05-03T02:12:54.435Z,91.26
2016-05-03T02:13:04.435Z,91.07
2016-05-03T02:13:14.435Z,91.45
2016-05-03T02:13:24.450Z,91.93
2016-05-03T02:13:34.450Z,91.64
2016-05-03T02:13:44.466Z,91.64
2016-05-03T02:13:54.469Z,91.55
2016-05-03T02:14:04.469Z,91.26
2016-05-03T02:14:14.469Z,91.69
2016-05-03T02:14:24.485Z,91.93
2016-05-03T02:14:34.485Z,91.93
2016-05-03T02:14:44.485Z,91.93
2016-05-03T02:14:54.502Z,91.64
2016-05-03T02:15:04.502Z,91.55
2016-05-03T02:15:14.502Z,91.74
2016-05-03T02:15:24.518Z,91.55
2016-05-03T02:15:34.518Z,92.02
2016-05-03T02:15:44.518Z,92.02
2016-05-03T02:15:54.521Z,91.64
2016-05-03T02:16:04.536Z,91.83
2016-05-03T02:16:14.536Z,91.74
2016-05-03T02:16:24.552Z,91.93
2016-05-03T02:16:34.552Z,91.83
2016-05-03T02:16:44.552Z,91.83
2016-05-03T02:16:54.555Z,91.64
2016-05-03T02:17:04.571Z,91.83
2016-05-03T02:17:14.571Z,92.02
2016-05-03T02:17:24.571Z,92.02
2016-05-03T02:17:34.586Z,91.83
2016-05-03T02:17:44.586Z,91.64
2016-05-03T02:17:54.588Z,91.55
2016-05-03T02:18:04.604Z,91.93
2016-05-03T02:18:14.604Z,91.83
2016-05-03T02:18:24.604Z,91.74
2016-05-03T02:18:34.620Z,92.12
2016-05-03T02:18:44.620Z,92.02
2016-05-03T02:18:54.623Z,91.83
2016-05-03T02:19:04.638Z,92.02
2016-05-03T02:19:14.638Z,92.02
2016-05-03T02:19:24.638Z,92.02
2016-05-03T02:19:34.638Z,91.74
2016-05-03T02:19:44.654Z,92.6
2016-05-03T02:19:54.657Z,92.6
2016-05-03T02:20:04.657Z,92.31
2016-05-03T02:20:14.672Z,92.31
2016-05-03T02:20:24.672Z,92.6
2016-05-03T02:20:34.688Z,92.41
2016-05-03T02:20:44.688Z,92.31
2016-05-03T02:20:54.691Z,92.12
2016-05-03T02:21:04.707Z,92.21
2016-05-03T02:21:14.707Z,92.41
2016-05-03T02:21:24.707Z,92.21
2016-05-03T02:21:34.707Z,92.12
2016-05-03T02:21:44.722Z,92.5
2016-05-03T02:21:54.724Z,92.5
2016-05-03T02:22:04.724Z,92.21
2016-05-03T02:22:14.740Z,92.12
2016-05-03T02:22:24.740Z,91.93
2016-05-03T02:22:34.771Z,92.12
2016-05-03T02:22:44.756Z,91.93
2016-05-03T02:22:54.759Z,92.02
2016-05-03T02:23:04.759Z,92.12
2016-05-03T02:23:14.774Z,92.02
2016-05-03T02:23:24.774Z,92.02
2016-05-03T02:23:34.774Z,92.12
2016-05-03T02:23:44.790Z,91.83
2016-05-03T02:23:54.792Z,92.02
2016-05-03T02:24:04.792Z,91.93
2016-05-03T02:24:14.807Z,91.93
2016-05-03T02:24:24.807Z,92.69
2016-05-03T02:24:34.807Z,92.79
2016-05-03T02:24:44.823Z,92.6
2016-05-03T02:24:54.826Z,92.6
2016-05-03T02:25:04.826Z,92.6
2016-05-03T02:25:14.857Z,92.6
2016-05-03T02:25:24.842Z,92.6
2016-05-03T02:25:34.842Z,92.6
2016-05-03T02:25:44.857Z,92.41
2016-05-03T02:25:54.860Z,92.5
2016-05-03T02:26:04.860Z,91.83
2016-05-03T02:26:14.860Z,92.69
2016-05-03T02:26:24.876Z,92.02
2016-05-03T02:26:34.876Z,91.93
2016-05-03T02:26:44.876Z,92.02
2016-05-03T02:26:54.895Z,92.02
2016-05-03T02:27:04.895Z,92.02
2016-05-03T02:27:14.895Z,92.41
2016-05-03T02:27:24.910Z,92.6
2016-05-03T02:27:34.910Z,92.69
2016-05-03T02:27:44.910Z,92.5
2016-05-03T02:27:54.928Z,92.6
2016-05-03T02:28:04.928Z,92.6
2016-05-03T02:28:14.928Z,92.41
2016-05-03T02:28:24.943Z,92.69
2016-05-03T02:28:34.943Z,92.5
2016-05-03T02:28:44.959Z,92.41
2016-05-03T02:28:54.962Z,92.41
2016-05-03T02:29:04.962Z,92.12
2016-05-03T02:29:14.962Z,92.5
2016-05-03T02:29:24.962Z,92.6
2016-05-03T02:29:34.978Z,92.5
2016-05-03T02:29:44.978Z,92.41
2016-05-03T02:29:54.996Z,92.41
2016-05-03T02:30:04.996Z,92.31
2016-05-03T02:30:14.996Z,92.5
2016-05-03T02:30:25.012Z,92.5
2016-05-03T02:30:35.012Z,92.41
2016-05-03T02:30:45.012Z,92.41
2016-05-03T02:30:55.031Z,92.41
2016-05-03T02:31:05.031Z,92.41
2016-05-03T02:31:15.031Z,92.41
2016-05-03T02:31:25.031Z,92.41
2016-05-03T02:31:35.046Z,92.41
2016-05-03T02:31:45.046Z,92.41
2016-05-03T02:31:55.048Z,92.41
2016-05-03T02:32:05.064Z,92.41
2016-05-03T02:32:15.064Z,92.41
2016-05-03T02:32:25.064Z,92.5
2016-05-03T02:32:35.079Z,92.41
2016-05-03T02:32:45.079Z,92.5
2016-05-03T02:32:55.097Z,92.41
2016-05-03T02:33:05.097Z,92.21
2016-05-03T02:33:15.097Z,92.88
2016-05-03T02:33:25.097Z,92.5
2016-05-03T02:33:35.113Z,92.88
2016-05-03T02:33:45.113Z,92.97
2016-05-03T02:33:55.117Z,92.6
2016-05-03T02:34:05.132Z,92.79
2016-05-03T02:34:15.132Z,92.79
2016-05-03T02:34:25.132Z,92.88
2016-05-03T02:34:35.148Z,92.6
2016-05-03T02:34:45.148Z,93.07
2016-05-03T02:34:55.150Z,92.97
2016-05-03T02:35:05.166Z,92.88
2016-05-03T02:35:15.166Z,92.97
2016-05-03T02:35:25.181Z,92.97
2016-05-03T02:35:35.181Z,92.97
2016-05-03T02:35:45.181Z,92.88
2016-05-03T02:35:55.184Z,92.88
2016-05-03T02:36:05.184Z,93.07
2016-05-03T02:36:15.200Z,92.69
2016-05-03T02:36:25.200Z,93.07
2016-05-03T02:36:35.215Z,93.07
2016-05-03T02:36:45.215Z,93.07
2016-05-03T02:36:55.358Z,92.79
2016-05-03T02:37:05.374Z,92.79
2016-05-03T02:37:15.233Z,92.88
2016-05-03T02:37:25.233Z,92.79
2016-05-03T02:37:35.233Z,92.88
2016-05-03T02:37:45.249Z,92.97
2016-05-03T02:37:55.253Z,92.97
2016-05-03T02:38:05.253Z,92.97
2016-05-03T02:38:15.268Z,93.26
2016-05-03T02:38:25.268Z,92.79
2016-05-03T02:38:35.268Z,92.97
2016-05-03T02:38:45.284Z,92.41
2016-05-03T02:38:55.286Z,92.88
2016-05-03T02:39:05.286Z,92.69
2016-05-03T02:39:15.302Z,93.26
2016-05-03T02:39:25.302Z,93.26
2016-05-03T02:39:35.302Z,93.17
2016-05-03T02:39:45.317Z,93.17
2016-05-03T02:39:55.319Z,92.97
2016-05-03T02:40:05.319Z,93.17
2016-05-03T02:40:15.335Z,93.17
2016-05-03T02:40:25.335Z,93.93
2016-05-03T02:40:35.335Z,93.74
2016-05-03T02:40:45.350Z,93.84
2016-05-03T02:40:55.353Z,93.74
2016-05-03T02:41:05.353Z,93.74
2016-05-03T02:41:15.369Z,93.55
2016-05-03T02:41:25.369Z,93.74
2016-05-03T02:41:35.369Z,93.84
2016-05-03T02:41:45.385Z,93.93
2016-05-03T02:41:55.388Z,93.36
2016-05-03T02:42:05.388Z,93.74
2016-05-03T02:42:15.388Z,93.74
2016-05-03T02:42:25.403Z,93.55
2016-05-03T02:42:35.403Z,93.55
2016-05-03T02:42:45.403Z,93.74
2016-05-03T02:42:55.422Z,93.17
2016-05-03T02:43:05.422Z,93.36
2016-05-03T02:43:15.422Z,93.55
2016-05-03T02:43:25.438Z,93.55
2016-05-03T02:43:35.438Z,93.26
2016-05-03T02:43:45.438Z,93.26
2016-05-03T02:43:55.456Z,93.55
2016-05-03T02:44:05.456Z,93.55
2016-05-03T02:44:15.472Z,93.74
2016-05-03T02:44:25.472Z,93.46
2016-05-03T02:44:35.472Z,93.36
2016-05-03T02:44:45.472Z,93.36
2016-05-03T02:44:55.489Z,93.84
2016-05-03T02:45:05.489Z,93.84
2016-05-03T02:45:15.489Z,93.65
2016-05-03T02:45:25.489Z,93.55
2016-05-03T02:45:35.505Z,93.55
2016-05-03T02:45:45.505Z,93.36
2016-05-03T02:45:55.524Z,93.36
2016-05-03T02:46:05.524Z,93.55
2016-05-03T02:46:15.524Z,93.74
2016-05-03T02:46:25.524Z,93.36
2016-05-03T02:46:35.539Z,93.36
2016-05-03T02:46:45.539Z,93.84
2016-05-03T02:46:55.558Z,93.84
2016-05-03T02:47:05.558Z,93.93
2016-05-03T02:47:15.558Z,93.74
2016-05-03T02:47:25.558Z,93.84
2016-05-03T02:47:35.574Z,93.84
2016-05-03T02:47:45.574Z,93.46
2016-05-03T02:47:55.576Z,93.74
2016-05-03T02:48:05.591Z,93.93
2016-05-03T02:48:15.591Z,93.74
2016-05-03T02:48:25.607Z,93.84
2016-05-03T02:48:35.607Z,93.74
2016-05-03T02:48:45.607Z,93.93
2016-05-03T02:48:55.610Z,93.65
2016-05-03T02:49:05.610Z,93.84
2016-05-03T02:49:15.625Z,93.74
2016-05-03T02:49:25.625Z,93.74
2016-05-03T02:49:35.641Z,93.55
2016-05-03T02:49:45.641Z,93.74
2016-05-03T02:49:55.643Z,93.46
2016-05-03T02:50:05.659Z,93.55
2016-05-03T02:50:15.659Z,93.46
2016-05-03T02:50:25.659Z,93.55
2016-05-03T02:50:35.674Z,93.36
2016-05-03T02:50:45.674Z,93.55
2016-05-03T02:50:55.678Z,93.84
2016-05-03T02:51:05.678Z,93.84
2016-05-03T02:51:15.694Z,93.36
2016-05-03T02:51:25.694Z,93.46
2016-05-03T02:51:35.694Z,93.46
2016-05-03T02:51:45.710Z,93.46
2016-05-03T02:51:55.712Z,93.46
2016-05-03T02:52:05.712Z,93.55
2016-05-03T02:52:15.727Z,93.65
2016-05-03T02:52:26.008Z,93.55
2016-05-03T02:52:35.727Z,93.55
2016-05-03T02:52:45.743Z,93.55
2016-05-03T02:52:55.746Z,93.65
2016-05-03T02:53:05.746Z,93.55
2016-05-03T02:53:15.761Z,93.65
2016-05-03T02:53:25.761Z,93.74
2016-05-03T02:53:35.761Z,93.55
2016-05-03T02:53:45.777Z,93.65
2016-05-03T02:53:55.780Z,93.84
2016-05-03T02:54:05.780Z,93.65
2016-05-03T02:54:15.796Z,93.84
2016-05-03T02:54:25.796Z,93.74
2016-05-03T02:54:35.811Z,93.74
2016-05-03T02:54:45.811Z,93.74
2016-05-03T02:54:55.814Z,93.93
2016-05-03T02:55:05.814Z,93.74
2016-05-03T02:55:15.814Z,93.74
2016-05-03T02:55:25.830Z,93.74
2016-05-03T02:55:35.830Z,93.84
2016-05-03T02:55:45.830Z,93.84
2016-05-03T02:55:55.848Z,94.03
2016-05-03T02:56:05.848Z,93.74
2016-05-03T02:56:15.863Z,93.84
2016-05-03T02:56:25.863Z,93.84
2016-05-03T02:56:35.863Z,93.84
2016-05-03T02:56:45.863Z,93.93
2016-05-03T02:56:55.882Z,94.03
2016-05-03T02:57:05.897Z,94.03
2016-05-03T02:57:15.882Z,93.55
2016-05-03T02:57:25.897Z,93.93
2016-05-03T02:57:35.897Z,94.22
2016-05-03T02:57:45.897Z,94.22
2016-05-03T02:57:55.916Z,93.84
2016-05-03T02:58:05.916Z,94.22
2016-05-03T02:58:15.916Z,94.31
2016-05-03T02:58:25.932Z,93.93
2016-05-03T02:58:35.932Z,94.22
2016-05-03T02:58:45.932Z,94.22
2016-05-03T02:58:55.934Z,94.22
2016-05-03T02:59:05.965Z,94.22
2016-05-03T02:59:15.949Z,94.31
2016-05-03T02:59:25.949Z,94.22
2016-05-03T02:59:35.965Z,94.12
2016-05-03T02:59:45.965Z,94.31
2016-05-03T02:59:55.968Z,93.84
2016-05-03T03:00:05.984Z,94.31
2016-05-03T03:00:15.984Z,93.84
2016-05-03T03:00:25.984Z,93.84
2016-05-03T03:00:35.999Z,93.84
2016-05-03T03:00:45.999Z,93.84
2016-05-03T03:00:56.001Z,93.84
2016-05-03T03:01:06.017Z,94.03
2016-05-03T03:01:16.017Z,94.22
2016-05-03T03:01:26.017Z,94.03
2016-05-03T03:01:36.032Z,93.84
2016-05-03T03:01:46.032Z,94.22
2016-05-03T03:01:56.035Z,93.84
2016-05-03T03:02:06.051Z,93.84
2016-05-03T03:02:16.051Z,93.74
2016-05-03T03:02:26.051Z,93.84
2016-05-03T03:02:36.051Z,94.03
2016-05-03T03:02:46.067Z,93.84
2016-05-03T03:02:56.070Z,93.84
2016-05-03T03:03:06.070Z,93.74
2016-05-03T03:03:16.085Z,93.74
2016-05-03T03:03:26.085Z,93.74
2016-05-03T03:03:36.085Z,93.84
2016-05-03T03:03:46.101Z,93.84
2016-05-03T03:03:56.104Z,93.84
2016-05-03T03:04:06.104Z,93.74
2016-05-03T03:04:16.120Z,93.36
2016-05-03T03:04:26.120Z,93.74
2016-05-03T03:04:36.135Z,93.84
2016-05-03T03:04:46.135Z,93.84
2016-05-03T03:04:56.137Z,93.84
2016-05-03T03:05:06.153Z,93.74
2016-05-03T03:05:16.153Z,93.84
2016-05-03T03:05:26.153Z,93.84
2016-05-03T03:05:36.153Z,93.93
2016-05-03T03:05:46.153Z,93.84
2016-05-03T03:05:56.171Z,93.74
2016-05-03T03:06:06.171Z,93.93
2016-05-03T03:06:16.187Z,93.84
2016-05-03T03:06:26.187Z,94.12
2016-05-03T03:06:36.187Z,94.03
2016-05-03T03:06:46.203Z,93.84
2016-05-03T03:06:56.206Z,93.74
2016-05-03T03:07:06.206Z,93.93
2016-05-03T03:07:16.221Z,93.74
2016-05-03T03:07:26.237Z,93.93
2016-05-03T03:07:36.487Z,93.93
2016-05-03T03:07:46.581Z,93.84
2016-05-03T03:07:56.239Z,93.84
2016-05-03T03:08:06.239Z,93.74
2016-05-03T03:08:16.239Z,93.55
2016-05-03T03:08:26.255Z,93.84
2016-05-03T03:08:36.255Z,93.46
2016-05-03T03:08:46.255Z,93.46
2016-05-03T03:08:56.272Z,93.36
2016-05-03T03:09:06.272Z,93.74
2016-05-03T03:09:16.272Z,93.55
2016-05-03T03:09:26.288Z,93.36
2016-05-03T03:09:36.303Z,93.46
2016-05-03T03:09:46.288Z,93.17
2016-05-03T03:09:56.307Z,93.17
2016-05-03T03:10:06.307Z,93.36
2016-05-03T03:10:16.307Z,93.55
2016-05-03T03:10:26.323Z,93.55
2016-05-03T03:10:36.323Z,93.55
2016-05-03T03:10:46.323Z,93.55
2016-05-03T03:10:56.341Z,93.55
2016-05-03T03:11:06.341Z,93.65
2016-05-03T03:11:16.341Z,93.55
2016-05-03T03:11:26.356Z,93.55
2016-05-03T03:11:36.356Z,93.55
2016-05-03T03:11:46.356Z,93.26
2016-05-03T03:11:56.359Z,93.55
2016-05-03T03:12:06.375Z,93.55
2016-05-03T03:12:16.375Z,93.74
2016-05-03T03:12:26.391Z,93.93
2016-05-03T03:12:36.391Z,93.46
2016-05-03T03:12:46.391Z,93.26
2016-05-03T03:12:56.393Z,93.17
2016-05-03T03:13:06.408Z,93.55
2016-05-03T03:13:16.408Z,93.07
2016-05-03T03:13:26.408Z,93.46
2016-05-03T03:13:36.424Z,93.26
2016-05-03T03:13:46.424Z,92.97
2016-05-03T03:13:56.428Z,93.26
2016-05-03T03:14:06.443Z,93.36
2016-05-03T03:14:16.443Z,93.26
2016-05-03T03:14:26.443Z,93.36
2016-05-03T03:14:36.459Z,93.26
2016-05-03T03:14:46.459Z,93.07
2016-05-03T03:14:56.461Z,92.97
2016-05-03T03:15:06.477Z,93.26
2016-05-03T03:15:16.477Z,93.07
2016-05-03T03:15:26.477Z,93.07
2016-05-03T03:15:36.492Z,93.07
2016-05-03T03:15:46.492Z,92.79
2016-05-03T03:15:56.495Z,92.88
2016-05-03T03:16:06.495Z,92.88
2016-05-03T03:16:16.511Z,92.88
2016-05-03T03:16:26.511Z,92.88
2016-05-03T03:16:36.511Z,92.88
2016-05-03T03:16:46.527Z,93.07
2016-05-03T03:16:56.530Z,92.79
2016-05-03T03:17:06.545Z,92.79
2016-05-03T03:17:16.545Z,92.69
2016-05-03T03:17:26.545Z,92.88
2016-05-03T03:17:36.545Z,92.79
2016-05-03T03:17:46.561Z,92.97
2016-05-03T03:17:56.563Z,92.97
2016-05-03T03:18:06.563Z,92.79
2016-05-03T03:18:16.578Z,92.97
2016-05-03T03:18:26.578Z,92.97
2016-05-03T03:18:36.578Z,92.79
2016-05-03T03:18:46.594Z,92.88
2016-05-03T03:18:56.597Z,92.97
2016-05-03T03:19:06.597Z,92.6
2016-05-03T03:19:16.613Z,92.6
2016-05-03T03:19:26.613Z,92.6
2016-05-03T03:19:36.628Z,92.5
2016-05-03T03:19:46.628Z,92.79
2016-05-03T03:19:56.630Z,92.88
2016-05-03T03:20:06.630Z,92.88
2016-05-03T03:20:16.630Z,92.79
2016-05-03T03:20:26.646Z,92.88
2016-05-03T03:20:36.646Z,92.79
2016-05-03T03:20:46.646Z,92.97
2016-05-03T03:20:56.665Z,92.97
2016-05-03T03:21:06.665Z,92.31
2016-05-03T03:21:16.680Z,92.31
2016-05-03T03:21:26.680Z,92.21
2016-05-03T03:21:36.680Z,92.31
2016-05-03T03:21:46.696Z,92.5
2016-05-03T03:21:57.652Z,92.31
2016-05-03T03:22:07.824Z,92.21
2016-05-03T03:22:16.714Z,92.31
2016-05-03T03:22:27.089Z,92.5
2016-05-03T03:22:36.714Z,92.31
2016-05-03T03:22:46.714Z,92.31
2016-05-03T03:22:56.733Z,92.31
2016-05-03T03:23:06.733Z,92.5
2016-05-03T03:23:16.749Z,92.31
2016-05-03T03:23:26.749Z,92.31
2016-05-03T03:23:36.749Z,92.5
2016-05-03T03:23:46.749Z,92.5
2016-05-03T03:23:56.766Z,92.69
2016-05-03T03:24:06.766Z,92.69
2016-05-03T03:24:16.766Z,92.69
2016-05-03T03:24:26.782Z,92.5
2016-05-03T03:24:36.782Z,92.6
2016-05-03T03:24:46.782Z,92.69
2016-05-03T03:24:56.801Z,92.31
2016-05-03T03:25:06.801Z,92.41
2016-05-03T03:25:16.816Z,92.5
2016-05-03T03:25:26.816Z,92.79
2016-05-03T03:25:36.816Z,92.31
2016-05-03T03:25:46.816Z,92.6
2016-05-03T03:25:56.834Z,92.5
2016-05-03T03:26:06.834Z,92.41
2016-05-03T03:26:16.834Z,92.41
2016-05-03T03:26:26.834Z,92.21
2016-05-03T03:26:36.849Z,92.5
2016-05-03T03:26:46.849Z,92.31
2016-05-03T03:26:56.868Z,92.88
2016-05-03T03:27:06.868Z,92.6
2016-05-03T03:27:16.868Z,92.41
2016-05-03T03:27:26.868Z,92.41
2016-05-03T03:27:36.884Z,92.5
2016-05-03T03:27:46.884Z,92.6
2016-05-03T03:27:56.887Z,92.41
2016-05-03T03:28:06.902Z,92.5
2016-05-03T03:28:16.902Z,92.79
2016-05-03T03:28:26.902Z,92.12
2016-05-03T03:28:36.918Z,92.02
2016-05-03T03:28:46.918Z,91.83
2016-05-03T03:28:56.921Z,91.93
2016-05-03T03:29:06.937Z,91.83
2016-05-03T03:29:16.937Z,92.31
2016-05-03T03:29:26.937Z,92.21
2016-05-03T03:29:36.952Z,92.02
2016-05-03T03:29:46.952Z,92.21
2016-05-03T03:29:56.971Z,92.21
2016-05-03T03:30:06.955Z,92.12
2016-05-03T03:30:16.971Z,92.21
2016-05-03T03:30:26.971Z,92.02
2016-05-03T03:30:36.986Z,91.83
2016-05-03T03:30:46.986Z,91.83
2016-05-03T03:30:57.005Z,91.93
2016-05-03T03:31:06.989Z,92.31
2016-05-03T03:31:17.005Z,92.31
2016-05-03T03:31:27.005Z,91.93
2016-05-03T03:31:37.005Z,92.02
2016-05-03T03:31:47.021Z,92.6
2016-05-03T03:31:57.023Z,92.6
2016-05-03T03:32:07.023Z,92.41
2016-05-03T03:32:17.038Z,92.5
2016-05-03T03:32:27.038Z,92.6
2016-05-03T03:32:37.054Z,92.6
2016-05-03T03:32:47.054Z,92.69
2016-05-03T03:32:57.057Z,92.6
2016-05-03T03:33:07.073Z,92.69
2016-05-03T03:33:17.073Z,92.41
2016-05-03T03:33:27.073Z,92.69
2016-05-03T03:33:37.073Z,92.69
2016-05-03T03:33:47.088Z,92.41
2016-05-03T03:33:57.090Z,92.12
2016-05-03T03:34:07.090Z,92.31
2016-05-03T03:34:17.106Z,92.12
2016-05-03T03:34:27.106Z,92.12
2016-05-03T03:34:37.121Z,92.02
2016-05-03T03:34:47.121Z,92.21
2016-05-03T03:34:57.124Z,92.21
2016-05-03T03:35:07.124Z,92.21
2016-05-03T03:35:17.140Z,92.21
2016-05-03T03:35:27.140Z,92.21
2016-05-03T03:35:37.140Z,92.21
2016-05-03T03:35:47.156Z,92.21
2016-05-03T03:35:57.159Z,92.5
2016-05-03T03:36:07.159Z,92.21
2016-05-03T03:36:17.159Z,92.21
2016-05-03T03:36:27.174Z,92.02
2016-05-03T03:36:37.174Z,92.02
2016-05-03T03:36:47.190Z,92.21
2016-05-03T03:36:57.192Z,92.21
2016-05-03T03:37:07.223Z,92.21
2016-05-03T03:37:17.536Z,92.31
2016-05-03T03:37:27.301Z,92.31
2016-05-03T03:37:37.333Z,92.31
2016-05-03T03:37:47.458Z,92.02
2016-05-03T03:37:57.226Z,92.41
2016-05-03T03:38:07.226Z,92.21
2016-05-03T03:38:17.226Z,92.31
2016-05-03T03:38:27.242Z,92.12
2016-05-03T03:38:37.242Z,92.21
2016-05-03T03:38:47.257Z,92.02
2016-05-03T03:38:57.260Z,92.21
2016-05-03T03:39:07.260Z,92.21
2016-05-03T03:39:17.260Z,92.21
2016-05-03T03:39:27.276Z,92.21
2016-05-03T03:39:37.276Z,92.02
2016-05-03T03:39:47.292Z,92.12
2016-05-03T03:39:57.294Z,92.12
2016-05-03T03:40:07.294Z,92.02
2016-05-03T03:40:17.294Z,92.02
2016-05-03T03:40:27.294Z,92.12
2016-05-03T03:40:37.309Z,92.12
2016-05-03T03:40:47.309Z,91.83
2016-05-03T03:40:57.328Z,91.74
2016-05-03T03:41:07.328Z,91.93
2016-05-03T03:41:17.328Z,91.74
2016-05-03T03:41:27.328Z,92.31
2016-05-03T03:41:37.344Z,92.02
2016-05-03T03:41:47.344Z,91.83
2016-05-03T03:41:57.362Z,92.41
2016-05-03T03:42:07.362Z,92.21
2016-05-03T03:42:17.362Z,91.93
2016-05-03T03:42:27.378Z,92.41
2016-05-03T03:42:37.378Z,91.74
2016-05-03T03:42:47.378Z,91.93
2016-05-03T03:42:57.381Z,92.02
2016-05-03T03:43:07.396Z,92.12
2016-05-03T03:43:17.396Z,92.02
2016-05-03T03:43:27.396Z,91.83
2016-05-03T03:43:37.412Z,91.93
2016-05-03T03:43:47.412Z,91.83
2016-05-03T03:43:57.415Z,92.21
2016-05-03T03:44:07.431Z,91.93
2016-05-03T03:44:17.431Z,91.93
2016-05-03T03:44:27.431Z,92.21
2016-05-03T03:44:37.446Z,92.02
2016-05-03T03:44:47.446Z,92.6
2016-05-03T03:44:57.463Z,92.02
2016-05-03T03:45:07.463Z,92.02
2016-05-03T03:45:17.463Z,92.02
2016-05-03T03:45:27.463Z,91.93
2016-05-03T03:45:37.463Z,92.79
2016-05-03T03:45:47.479Z,92.02
2016-05-03T03:45:57.482Z,91.83
2016-05-03T03:46:07.482Z,91.83
2016-05-03T03:46:17.497Z,92.31
2016-05-03T03:46:27.497Z,92.12
2016-05-03T03:46:37.497Z,92.41
2016-05-03T03:46:47.513Z,91.93
2016-05-03T03:46:57.516Z,92.21
2016-05-03T03:47:07.516Z,92.31